sensor_id;sensor_type;location;lat;lon;timestamp;pressure;altitude;pressure_sealevel;temperature;humidity
65756;BME280;52489;47.502;18.940;2023-04-04T00:00:23;98312.09;;;0.61;53.32
65756;BME280;52489;47.502;18.940;2023-04-04T00:01:25;98311.31;;;0.60;52.97
65756;BME280;52489;47.502;18.940;2023-04-04T00:02:28;98311.00;;;0.57;53.26
65756;BME280;52489;47.502;18.940;2023-04-04T00:03:31;98314.00;;;0.54;53.76
65756;BME280;52489;47.502;18.940;2023-04-04T00:04:35;98303.13;;;0.52;54.19
65756;BME280;52489;47.502;18.940;2023-04-04T00:05:38;98307.72;;;0.50;54.46
65756;BME280;52489;47.502;18.940;2023-04-04T00:06:41;98311.41;;;0.42;54.53
65756;BME280;52489;47.502;18.940;2023-04-04T00:07:47;98322.03;;;0.34;55.25
65756;BME280;52489;47.502;18.940;2023-04-04T00:08:50;98314.19;;;0.29;55.41
65756;BME280;52489;47.502;18.940;2023-04-04T00:09:53;98313.28;;;0.35;55.40
65756;BME280;52489;47.502;18.940;2023-04-04T00:10:59;98319.22;;;0.23;55.30
65756;BME280;52489;47.502;18.940;2023-04-04T00:12:02;98319.44;;;0.22;54.86
65756;BME280;52489;47.502;18.940;2023-04-04T00:13:05;98313.94;;;0.18;54.78
65756;BME280;52489;47.502;18.940;2023-04-04T00:14:09;98317.00;;;0.27;54.74
65756;BME280;52489;47.502;18.940;2023-04-04T00:15:12;98316.41;;;0.25;55.00
65756;BME280;52489;47.502;18.940;2023-04-04T00:16:15;98319.13;;;0.30;54.84
65756;BME280;52489;47.502;18.940;2023-04-04T00:17:18;98311.28;;;0.25;55.05
65756;BME280;52489;47.502;18.940;2023-04-04T00:18:23;98314.88;;;0.24;55.05
65756;BME280;52489;47.502;18.940;2023-04-04T00:19:26;98316.75;;;0.29;55.66
65756;BME280;52489;47.502;18.940;2023-04-04T00:20:31;98316.19;;;0.27;55.67
65756;BME280;52489;47.502;18.940;2023-04-04T00:21:34;98320.38;;;0.39;54.55
65756;BME280;52489;47.502;18.940;2023-04-04T00:22:37;98316.13;;;0.45;54.93
65756;BME280;52489;47.502;18.940;2023-04-04T00:23:39;98320.69;;;0.31;56.07
65756;BME280;52489;47.502;18.940;2023-04-04T00:24:42;98320.34;;;0.28;56.37
65756;BME280;52489;47.502;18.940;2023-04-04T00:25:51;98325.06;;;0.31;56.72
65756;BME280;52489;47.502;18.940;2023-04-04T00:26:54;98325.63;;;0.33;56.23
65756;BME280;52489;47.502;18.940;2023-04-04T00:27:57;98330.78;;;0.33;56.23
65756;BME280;52489;47.502;18.940;2023-04-04T00:29:02;98329.50;;;0.23;56.26
65756;BME280;52489;47.502;18.940;2023-04-04T00:30:05;98320.22;;;0.22;56.03
65756;BME280;52489;47.502;18.940;2023-04-04T00:31:09;98331.53;;;0.21;55.79
65756;BME280;52489;47.502;18.940;2023-04-04T00:32:12;98323.03;;;0.21;56.52
65756;BME280;52489;47.502;18.940;2023-04-04T00:33:15;98332.16;;;0.05;57.29
65756;BME280;52489;47.502;18.940;2023-04-04T00:34:18;98325.66;;;0.03;57.00
65756;BME280;52489;47.502;18.940;2023-04-04T00:35:21;98331.94;;;0.07;56.99
65756;BME280;52489;47.502;18.940;2023-04-04T00:36:24;98334.53;;;0.07;57.05
65756;BME280;52489;47.502;18.940;2023-04-04T00:37:27;98337.22;;;0.12;57.65
65756;BME280;52489;47.502;18.940;2023-04-04T00:38:30;98326.50;;;0.15;57.52
65756;BME280;52489;47.502;18.940;2023-04-04T00:39:33;98337.78;;;0.14;57.38
65756;BME280;52489;47.502;18.940;2023-04-04T00:40:44;98339.97;;;-0.02;57.20
65756;BME280;52489;47.502;18.940;2023-04-04T00:41:49;98341.78;;;-0.02;56.53
65756;BME280;52489;47.502;18.940;2023-04-04T00:42:52;98331.22;;;-0.01;57.13
65756;BME280;52489;47.502;18.940;2023-04-04T00:43:55;98331.31;;;-0.07;57.48
65756;BME280;52489;47.502;18.940;2023-04-04T00:44:58;98327.69;;;0.01;56.31
65756;BME280;52489;47.502;18.940;2023-04-04T00:46:01;98328.41;;;-0.11;56.47
65756;BME280;52489;47.502;18.940;2023-04-04T00:47:04;98332.91;;;-0.06;56.45
65756;BME280;52489;47.502;18.940;2023-04-04T00:48:07;98326.75;;;-0.05;56.91
65756;BME280;52489;47.502;18.940;2023-04-04T00:49:10;98333.16;;;0.04;56.82
65756;BME280;52489;47.502;18.940;2023-04-04T00:50:13;98337.88;;;0.07;56.75
65756;BME280;52489;47.502;18.940;2023-04-04T00:51:16;98342.31;;;-0.12;56.91
65756;BME280;52489;47.502;18.940;2023-04-04T00:52:19;98342.31;;;-0.12;57.27
65756;BME280;52489;47.502;18.940;2023-04-04T00:53:22;98339.16;;;-0.14;57.17
65756;BME280;52489;47.502;18.940;2023-04-04T00:54:24;98337.22;;;-0.18;57.54
65756;BME280;52489;47.502;18.940;2023-04-04T00:55:27;98336.88;;;-0.22;57.49
65756;BME280;52489;47.502;18.940;2023-04-04T00:56:31;98330.28;;;-0.18;56.90
65756;BME280;52489;47.502;18.940;2023-04-04T00:57:34;98332.59;;;-0.28;57.38
65756;BME280;52489;47.502;18.940;2023-04-04T00:58:40;98328.81;;;-0.26;57.76
65756;BME280;52489;47.502;18.940;2023-04-04T00:59:44;98327.16;;;-0.20;58.20
65756;BME280;52489;47.502;18.940;2023-04-04T01:00:47;98326.44;;;-0.27;58.46
65756;BME280;52489;47.502;18.940;2023-04-04T01:01:50;98315.94;;;-0.26;58.43
65756;BME280;52489;47.502;18.940;2023-04-04T01:02:53;98325.66;;;-0.28;58.40
65756;BME280;52489;47.502;18.940;2023-04-04T01:03:56;98317.78;;;-0.33;58.88
65756;BME280;52489;47.502;18.940;2023-04-04T01:04:59;98318.22;;;-0.36;58.97
65756;BME280;52489;47.502;18.940;2023-04-04T01:06:02;98318.78;;;-0.34;59.11
65756;BME280;52489;47.502;18.940;2023-04-04T01:07:05;98310.28;;;-0.34;59.10
65756;BME280;52489;47.502;18.940;2023-04-04T01:08:08;98301.56;;;-0.33;59.15
65756;BME280;52489;47.502;18.940;2023-04-04T01:09:11;98313.34;;;-0.26;59.50
65756;BME280;52489;47.502;18.940;2023-04-04T01:10:14;98306.00;;;-0.40;59.73
65756;BME280;52489;47.502;18.940;2023-04-04T01:11:17;98302.72;;;-0.48;60.00
65756;BME280;52489;47.502;18.940;2023-04-04T01:12:19;98299.28;;;-0.41;59.77
65756;BME280;52489;47.502;18.940;2023-04-04T01:13:22;98304.50;;;-0.48;59.70
65756;BME280;52489;47.502;18.940;2023-04-04T01:14:25;98300.69;;;-0.27;59.19
65756;BME280;52489;47.502;18.940;2023-04-04T01:15:28;98289.75;;;-0.53;59.56
65756;BME280;52489;47.502;18.940;2023-04-04T01:16:32;98293.22;;;-0.65;60.83
65756;BME280;52489;47.502;18.940;2023-04-04T01:17:37;98293.09;;;-0.52;60.63
65756;BME280;52489;47.502;18.940;2023-04-04T01:18:40;98288.16;;;-0.54;59.73
65756;BME280;52489;47.502;18.940;2023-04-04T01:20:02;98287.44;;;-0.61;60.01
65756;BME280;52489;47.502;18.940;2023-04-04T01:21:09;98287.22;;;-0.59;59.79
65756;BME280;52489;47.502;18.940;2023-04-04T01:22:13;98282.94;;;-0.47;59.80
65756;BME280;52489;47.502;18.940;2023-04-04T01:23:17;98284.47;;;-0.76;59.45
65756;BME280;52489;47.502;18.940;2023-04-04T01:24:21;98284.41;;;-0.88;59.91
65756;BME280;52489;47.502;18.940;2023-04-04T01:25:30;98274.53;;;-0.73;59.91
65756;BME280;52489;47.502;18.940;2023-04-04T01:26:36;98275.38;;;-0.79;59.47
65756;BME280;52489;47.502;18.940;2023-04-04T01:27:39;98280.09;;;-0.76;59.17
65756;BME280;52489;47.502;18.940;2023-04-04T01:28:41;98280.53;;;-0.79;58.98
65756;BME280;52489;47.502;18.940;2023-04-04T01:29:44;98275.31;;;-0.72;58.89
65756;BME280;52489;47.502;18.940;2023-04-04T01:30:47;98275.81;;;-0.63;59.21
65756;BME280;52489;47.502;18.940;2023-04-04T01:31:56;98280.50;;;-0.60;59.11
65756;BME280;52489;47.502;18.940;2023-04-04T01:33:15;98271.22;;;-0.61;59.24
65756;BME280;52489;47.502;18.940;2023-04-04T01:34:42;98270.66;;;-0.63;59.50
65756;BME280;52489;47.502;18.940;2023-04-04T01:40:19;98262.38;;;-0.84;58.80
65756;BME280;52489;47.502;18.940;2023-04-04T01:41:29;98266.31;;;-0.81;58.52
65756;BME280;52489;47.502;18.940;2023-04-04T01:42:35;98256.37;;;-0.96;58.60
65756;BME280;52489;47.502;18.940;2023-04-04T01:43:38;98261.25;;;-0.88;59.14
65756;BME280;52489;47.502;18.940;2023-04-04T01:44:41;98256.09;;;-0.70;58.23
65756;BME280;52489;47.502;18.940;2023-04-04T01:45:44;98253.44;;;-0.81;58.48
65756;BME280;52489;47.502;18.940;2023-04-04T01:46:52;98250.31;;;-0.83;58.79
65756;BME280;52489;47.502;18.940;2023-04-04T01:47:56;98249.09;;;-0.81;59.16
65756;BME280;52489;47.502;18.940;2023-04-04T01:48:59;98249.88;;;-0.80;58.78
65756;BME280;52489;47.502;18.940;2023-04-04T01:50:02;98247.31;;;-0.99;58.78
65756;BME280;52489;47.502;18.940;2023-04-04T01:51:06;98241.66;;;-0.89;58.77
65756;BME280;52489;47.502;18.940;2023-04-04T01:52:10;98244.81;;;-0.87;58.37
65756;BME280;52489;47.502;18.940;2023-04-04T01:53:13;98235.16;;;-0.73;58.42
65756;BME280;52489;47.502;18.940;2023-04-04T01:54:16;98240.00;;;-0.83;58.48
65756;BME280;52489;47.502;18.940;2023-04-04T01:55:20;98228.03;;;-0.89;58.78
65756;BME280;52489;47.502;18.940;2023-04-04T01:56:23;98231.03;;;-0.93;58.35
65756;BME280;52489;47.502;18.940;2023-04-04T01:57:27;98228.44;;;-0.93;58.45
65756;BME280;52489;47.502;18.940;2023-04-04T01:58:29;98231.69;;;-0.97;58.76
65756;BME280;52489;47.502;18.940;2023-04-04T01:59:32;98229.81;;;-0.90;58.35
65756;BME280;52489;47.502;18.940;2023-04-04T02:00:35;98235.88;;;-0.84;57.59
65756;BME280;52489;47.502;18.940;2023-04-04T02:01:38;98228.94;;;-0.84;57.44
65756;BME280;52489;47.502;18.940;2023-04-04T02:02:41;98223.16;;;-0.98;58.85
65756;BME280;52489;47.502;18.940;2023-04-04T02:03:44;98213.59;;;-0.90;57.98
65756;BME280;52489;47.502;18.940;2023-04-04T02:04:47;98221.03;;;-0.82;57.73
65756;BME280;52489;47.502;18.940;2023-04-04T02:05:50;98221.97;;;-0.77;57.80
65756;BME280;52489;47.502;18.940;2023-04-04T02:06:54;98214.66;;;-0.80;57.60
65756;BME280;52489;47.502;18.940;2023-04-04T02:07:58;98212.66;;;-0.78;57.23
65756;BME280;52489;47.502;18.940;2023-04-04T02:09:01;98215.22;;;-0.78;57.58
65756;BME280;52489;47.502;18.940;2023-04-04T02:10:04;98219.88;;;-0.68;57.02
65756;BME280;52489;47.502;18.940;2023-04-04T02:11:07;98210.91;;;-0.65;56.97
65756;BME280;52489;47.502;18.940;2023-04-04T02:12:10;98218.13;;;-0.56;56.67
65756;BME280;52489;47.502;18.940;2023-04-04T02:13:13;98205.62;;;-0.40;56.77
65756;BME280;52489;47.502;18.940;2023-04-04T02:14:16;98197.03;;;-0.34;56.08
65756;BME280;52489;47.502;18.940;2023-04-04T02:15:19;98207.72;;;-0.49;56.56
65756;BME280;52489;47.502;18.940;2023-04-04T02:16:22;98207.41;;;-0.53;57.18
65756;BME280;52489;47.502;18.940;2023-04-04T02:17:25;98212.16;;;-0.56;56.86
65756;BME280;52489;47.502;18.940;2023-04-04T02:18:30;98201.53;;;-0.60;57.49
65756;BME280;52489;47.502;18.940;2023-04-04T02:19:33;98195.78;;;-0.43;57.19
65756;BME280;52489;47.502;18.940;2023-04-04T02:20:36;98196.78;;;-0.44;56.66
65756;BME280;52489;47.502;18.940;2023-04-04T02:21:39;98192.28;;;-0.49;56.73
65756;BME280;52489;47.502;18.940;2023-04-04T02:22:42;98196.09;;;-0.52;56.82
65756;BME280;52489;47.502;18.940;2023-04-04T02:23:45;98197.94;;;-0.71;57.78
65756;BME280;52489;47.502;18.940;2023-04-04T02:24:47;98199.44;;;-0.81;57.84
65756;BME280;52489;47.502;18.940;2023-04-04T02:25:50;98194.91;;;-0.67;57.82
65756;BME280;52489;47.502;18.940;2023-04-04T02:26:53;98192.03;;;-0.59;57.49
65756;BME280;52489;47.502;18.940;2023-04-04T02:27:56;98186.28;;;-0.73;57.84
65756;BME280;52489;47.502;18.940;2023-04-04T02:28:59;98193.88;;;-0.78;57.96
65756;BME280;52489;47.502;18.940;2023-04-04T02:30:02;98193.09;;;-0.79;58.02
65756;BME280;52489;47.502;18.940;2023-04-04T02:31:05;98189.97;;;-0.69;57.98
65756;BME280;52489;47.502;18.940;2023-04-04T02:32:08;98184.25;;;-0.71;57.69
65756;BME280;52489;47.502;18.940;2023-04-04T02:33:11;98181.53;;;-0.58;57.58
65756;BME280;52489;47.502;18.940;2023-04-04T02:34:14;98182.41;;;-0.64;57.72
65756;BME280;52489;47.502;18.940;2023-04-04T02:35:17;98182.22;;;-0.51;57.92
65756;BME280;52489;47.502;18.940;2023-04-04T02:36:20;98179.56;;;-0.44;57.90
65756;BME280;52489;47.502;18.940;2023-04-04T02:37:23;98181.81;;;-0.66;57.65
65756;BME280;52489;47.502;18.940;2023-04-04T02:38:26;98173.31;;;-0.66;58.11
65756;BME280;52489;47.502;18.940;2023-04-04T02:39:30;98180.94;;;-0.60;57.82
65756;BME280;52489;47.502;18.940;2023-04-04T02:40:33;98178.13;;;-0.70;58.15
65756;BME280;52489;47.502;18.940;2023-04-04T02:41:37;98180.84;;;-0.65;58.15
65756;BME280;52489;47.502;18.940;2023-04-04T02:42:43;98186.19;;;-0.66;57.89
65756;BME280;52489;47.502;18.940;2023-04-04T02:43:46;98182.31;;;-0.87;58.53
65756;BME280;52489;47.502;18.940;2023-04-04T02:44:49;98178.78;;;-0.75;58.29
65756;BME280;52489;47.502;18.940;2023-04-04T02:45:52;98175.91;;;-0.66;58.44
65756;BME280;52489;47.502;18.940;2023-04-04T02:46:55;98178.28;;;-0.65;58.10
65756;BME280;52489;47.502;18.940;2023-04-04T02:47:59;98186.69;;;-0.58;58.08
65756;BME280;52489;47.502;18.940;2023-04-04T02:49:02;98180.03;;;-0.65;58.73
65756;BME280;52489;47.502;18.940;2023-04-04T02:50:06;98177.91;;;-0.69;58.41
65756;BME280;52489;47.502;18.940;2023-04-04T02:51:11;98180.88;;;-0.53;58.25
65756;BME280;52489;47.502;18.940;2023-04-04T02:52:14;98177.78;;;-0.74;57.96
65756;BME280;52489;47.502;18.940;2023-04-04T02:53:17;98172.22;;;-0.71;58.49
65756;BME280;52489;47.502;18.940;2023-04-04T02:54:20;98178.34;;;-0.72;58.91
65756;BME280;52489;47.502;18.940;2023-04-04T02:55:23;98176.00;;;-0.73;59.11
65756;BME280;52489;47.502;18.940;2023-04-04T02:56:26;98181.03;;;-0.66;58.45
65756;BME280;52489;47.502;18.940;2023-04-04T02:57:28;98171.56;;;-0.54;58.37
65756;BME280;52489;47.502;18.940;2023-04-04T02:58:31;98178.19;;;-0.58;58.75
65756;BME280;52489;47.502;18.940;2023-04-04T02:59:34;98186.53;;;-0.63;58.42
65756;BME280;52489;47.502;18.940;2023-04-04T03:00:37;98185.19;;;-0.65;58.53
65756;BME280;52489;47.502;18.940;2023-04-04T03:01:41;98178.34;;;-0.72;58.81
65756;BME280;52489;47.502;18.940;2023-04-04T03:02:44;98182.94;;;-0.92;59.46
65756;BME280;52489;47.502;18.940;2023-04-04T03:03:48;98187.53;;;-0.94;59.88
65756;BME280;52489;47.502;18.940;2023-04-04T03:04:51;98187.87;;;-0.90;59.72
65756;BME280;52489;47.502;18.940;2023-04-04T03:05:54;98187.75;;;-0.65;59.31
65756;BME280;52489;47.502;18.940;2023-04-04T03:06:57;98189.41;;;-0.71;58.97
65756;BME280;52489;47.502;18.940;2023-04-04T03:08:00;98195.56;;;-0.72;58.85
65756;BME280;52489;47.502;18.940;2023-04-04T03:09:03;98185.28;;;-0.72;58.74
65756;BME280;52489;47.502;18.940;2023-04-04T03:10:06;98196.78;;;-0.75;58.77
65756;BME280;52489;47.502;18.940;2023-04-04T03:11:09;98191.81;;;-0.88;59.21
65756;BME280;52489;47.502;18.940;2023-04-04T03:12:12;98195.41;;;-1.07;60.16
65756;BME280;52489;47.502;18.940;2023-04-04T03:13:15;98195.47;;;-0.96;59.41
65756;BME280;52489;47.502;18.940;2023-04-04T03:14:18;98197.75;;;-0.87;59.32
65756;BME280;52489;47.502;18.940;2023-04-04T03:15:21;98202.22;;;-0.83;59.09
65756;BME280;52489;47.502;18.940;2023-04-04T03:16:24;98200.66;;;-0.84;59.28
65756;BME280;52489;47.502;18.940;2023-04-04T03:17:27;98203.81;;;-0.82;59.32
65756;BME280;52489;47.502;18.940;2023-04-04T03:18:31;98199.09;;;-0.85;59.33
65756;BME280;52489;47.502;18.940;2023-04-04T03:19:35;98205.22;;;-0.86;59.93
65756;BME280;52489;47.502;18.940;2023-04-04T03:20:38;98197.59;;;-0.93;59.71
65756;BME280;52489;47.502;18.940;2023-04-04T03:21:41;98208.03;;;-0.87;59.38
65756;BME280;52489;47.502;18.940;2023-04-04T03:22:43;98205.16;;;-0.98;59.44
65756;BME280;52489;47.502;18.940;2023-04-04T03:23:46;98211.28;;;-0.80;59.36
65756;BME280;52489;47.502;18.940;2023-04-04T03:24:49;98208.50;;;-0.79;59.32
65756;BME280;52489;47.502;18.940;2023-04-04T03:25:52;98211.28;;;-0.80;59.51
65756;BME280;52489;47.502;18.940;2023-04-04T03:26:58;98202.31;;;-0.89;59.78
65756;BME280;52489;47.502;18.940;2023-04-04T03:28:09;98206.72;;;-0.78;59.82
65756;BME280;52489;47.502;18.940;2023-04-04T03:29:13;98206.91;;;-0.92;59.61
65756;BME280;52489;47.502;18.940;2023-04-04T03:30:15;98201.63;;;-0.97;60.12
65756;BME280;52489;47.502;18.940;2023-04-04T03:31:18;98206.66;;;-0.90;60.08
65756;BME280;52489;47.502;18.940;2023-04-04T03:32:21;98202.31;;;-0.89;59.84
65756;BME280;52489;47.502;18.940;2023-04-04T03:33:24;98209.16;;;-0.83;59.70
65756;BME280;52489;47.502;18.940;2023-04-04T03:34:26;98201.87;;;-0.86;59.66
65756;BME280;52489;47.502;18.940;2023-04-04T03:35:29;98204.97;;;-0.96;59.81
65756;BME280;52489;47.502;18.940;2023-04-04T03:36:32;98208.06;;;-1.06;59.79
65756;BME280;52489;47.502;18.940;2023-04-04T03:37:35;98208.97;;;-1.00;59.79
65756;BME280;52489;47.502;18.940;2023-04-04T03:38:38;98208.09;;;-0.94;59.79
65756;BME280;52489;47.502;18.940;2023-04-04T03:39:42;98204.91;;;-1.08;59.82
65756;BME280;52489;47.502;18.940;2023-04-04T03:40:44;98215.63;;;-1.11;60.01
65756;BME280;52489;47.502;18.940;2023-04-04T03:41:47;98206.78;;;-1.15;60.08
65756;BME280;52489;47.502;18.940;2023-04-04T03:42:50;98211.16;;;-1.04;59.96
65756;BME280;52489;47.502;18.940;2023-04-04T03:43:53;98209.84;;;-1.06;59.88
65756;BME280;52489;47.502;18.940;2023-04-04T03:44:56;98207.75;;;-1.16;60.11
65756;BME280;52489;47.502;18.940;2023-04-04T03:46:03;98213.81;;;-1.10;60.25
65756;BME280;52489;47.502;18.940;2023-04-04T03:47:06;98210.63;;;-1.06;60.15
65756;BME280;52489;47.502;18.940;2023-04-04T03:48:09;98211.09;;;-1.16;60.06
65756;BME280;52489;47.502;18.940;2023-04-04T03:49:12;98213.97;;;-1.05;59.80
65756;BME280;52489;47.502;18.940;2023-04-04T03:50:16;98215.03;;;-1.13;60.01
65756;BME280;52489;47.502;18.940;2023-04-04T03:51:24;98213.47;;;-1.14;59.79
65756;BME280;52489;47.502;18.940;2023-04-04T03:52:28;98211.47;;;-1.12;60.23
65756;BME280;52489;47.502;18.940;2023-04-04T03:53:31;98213.12;;;-1.18;60.16
65756;BME280;52489;47.502;18.940;2023-04-04T03:54:34;98215.09;;;-1.20;59.92
65756;BME280;52489;47.502;18.940;2023-04-04T03:55:40;98213.12;;;-1.18;59.92
65756;BME280;52489;47.502;18.940;2023-04-04T03:56:44;98212.88;;;-1.16;60.78
65756;BME280;52489;47.502;18.940;2023-04-04T03:57:46;98212.69;;;-1.15;60.80
65756;BME280;52489;47.502;18.940;2023-04-04T03:58:49;98215.47;;;-1.16;60.39
65756;BME280;52489;47.502;18.940;2023-04-04T03:59:52;98210.97;;;-1.02;60.70
65756;BME280;52489;47.502;18.940;2023-04-04T04:00:55;98213.38;;;-1.07;60.68
65756;BME280;52489;47.502;18.940;2023-04-04T04:01:58;98215.88;;;-1.01;60.48
65756;BME280;52489;47.502;18.940;2023-04-04T04:03:01;98216.09;;;-1.02;59.93
65756;BME280;52489;47.502;18.940;2023-04-04T04:04:04;98214.69;;;-1.17;60.10
65756;BME280;52489;47.502;18.940;2023-04-04T04:05:07;98218.25;;;-1.18;60.62
65756;BME280;52489;47.502;18.940;2023-04-04T04:06:10;98213.59;;;-1.27;61.06
65756;BME280;52489;47.502;18.940;2023-04-04T04:07:14;98217.19;;;-1.28;61.60
65756;BME280;52489;47.502;18.940;2023-04-04T04:08:17;98214.53;;;-1.40;62.16
65756;BME280;52489;47.502;18.940;2023-04-04T04:09:19;98209.37;;;-1.40;61.95
65756;BME280;52489;47.502;18.940;2023-04-04T04:10:23;98209.28;;;-1.27;62.04
65756;BME280;52489;47.502;18.940;2023-04-04T04:11:26;98211.25;;;-1.29;62.18
65756;BME280;52489;47.502;18.940;2023-04-04T04:12:29;98207.81;;;-1.41;62.68
65756;BME280;52489;47.502;18.940;2023-04-04T04:13:33;98213.91;;;-1.35;62.47
65756;BME280;52489;47.502;18.940;2023-04-04T04:14:36;98215.69;;;-1.36;62.52
65756;BME280;52489;47.502;18.940;2023-04-04T04:15:39;98208.69;;;-1.29;62.71
65756;BME280;52489;47.502;18.940;2023-04-04T04:16:42;98199.69;;;-1.38;62.54
65756;BME280;52489;47.502;18.940;2023-04-04T04:17:44;98203.19;;;-1.32;62.51
65756;BME280;52489;47.502;18.940;2023-04-04T04:18:47;98202.69;;;-1.23;62.25
65756;BME280;52489;47.502;18.940;2023-04-04T04:19:50;98201.69;;;-1.22;62.03
65756;BME280;52489;47.502;18.940;2023-04-04T04:20:57;98202.34;;;-1.26;62.06
65756;BME280;52489;47.502;18.940;2023-04-04T04:22:05;98200.19;;;-1.29;62.32
65756;BME280;52489;47.502;18.940;2023-04-04T04:23:08;98205.09;;;-1.28;62.25
65756;BME280;52489;47.502;18.940;2023-04-04T04:24:10;98201.47;;;-1.39;62.36
65756;BME280;52489;47.502;18.940;2023-04-04T04:25:14;98202.09;;;-1.62;63.03
65756;BME280;52489;47.502;18.940;2023-04-04T04:26:17;98197.63;;;-1.48;63.10
65756;BME280;52489;47.502;18.940;2023-04-04T04:27:20;98204.53;;;-1.48;62.26
65756;BME280;52489;47.502;18.940;2023-04-04T04:28:23;98207.66;;;-1.46;62.15
65756;BME280;52489;47.502;18.940;2023-04-04T04:29:35;98200.91;;;-1.41;61.90
65756;BME280;52489;47.502;18.940;2023-04-04T04:30:38;98196.13;;;-1.37;62.19
65756;BME280;52489;47.502;18.940;2023-04-04T04:31:42;98199.03;;;-1.33;62.05
65756;BME280;52489;47.502;18.940;2023-04-04T04:32:44;98198.31;;;-1.41;62.32
65756;BME280;52489;47.502;18.940;2023-04-04T04:33:47;98192.41;;;-1.41;62.10
65756;BME280;52489;47.502;18.940;2023-04-04T04:34:50;98193.69;;;-1.32;62.28
65756;BME280;52489;47.502;18.940;2023-04-04T04:35:53;98199.47;;;-1.37;62.32
65756;BME280;52489;47.502;18.940;2023-04-04T04:36:56;98189.56;;;-1.33;62.26
65756;BME280;52489;47.502;18.940;2023-04-04T04:37:59;98185.75;;;-1.30;62.11
65756;BME280;52489;47.502;18.940;2023-04-04T04:39:02;98192.59;;;-1.24;61.52
65756;BME280;52489;47.502;18.940;2023-04-04T04:40:05;98188.72;;;-1.27;62.11
65756;BME280;52489;47.502;18.940;2023-04-04T04:41:08;98190.69;;;-1.29;61.75
65756;BME280;52489;47.502;18.940;2023-04-04T04:42:11;98190.62;;;-1.22;61.60
65756;BME280;52489;47.502;18.940;2023-04-04T04:43:13;98189.63;;;-1.21;61.82
65756;BME280;52489;47.502;18.940;2023-04-04T04:44:16;98186.06;;;-1.20;62.20
65756;BME280;52489;47.502;18.940;2023-04-04T04:45:20;98186.25;;;-1.40;62.81
65756;BME280;52489;47.502;18.940;2023-04-04T04:46:23;98184.41;;;-1.51;63.00
65756;BME280;52489;47.502;18.940;2023-04-04T04:47:26;98191.53;;;-1.53;63.06
65756;BME280;52489;47.502;18.940;2023-04-04T04:48:35;98190.53;;;-1.34;62.39
65756;BME280;52489;47.502;18.940;2023-04-04T04:49:37;98193.03;;;-1.27;61.90
65756;BME280;52489;47.502;18.940;2023-04-04T04:50:42;98193.13;;;-1.34;61.12
65756;BME280;52489;47.502;18.940;2023-04-04T04:51:45;98192.13;;;-1.33;61.36
65756;BME280;52489;47.502;18.940;2023-04-04T04:52:51;98197.75;;;-1.24;61.71
65756;BME280;52489;47.502;18.940;2023-04-04T04:53:54;98202.09;;;-1.25;61.20
65756;BME280;52489;47.502;18.940;2023-04-04T04:54:56;98192.91;;;-1.14;61.40
65756;BME280;52489;47.502;18.940;2023-04-04T04:55:59;98191.81;;;-1.25;60.83
65756;BME280;52489;47.502;18.940;2023-04-04T04:57:02;98190.88;;;-1.49;62.42
65756;BME280;52489;47.502;18.940;2023-04-04T04:58:05;98188.41;;;-1.37;62.27
65756;BME280;52489;47.502;18.940;2023-04-04T04:59:08;98189.06;;;-1.23;61.77
65756;BME280;52489;47.502;18.940;2023-04-04T05:00:13;98182.62;;;-1.32;61.84
65756;BME280;52489;47.502;18.940;2023-04-04T05:01:15;98187.34;;;-1.29;61.80
65756;BME280;52489;47.502;18.940;2023-04-04T05:02:19;98182.47;;;-1.38;62.00
65756;BME280;52489;47.502;18.940;2023-04-04T05:03:22;98188.53;;;-1.13;61.55
65756;BME280;52489;47.502;18.940;2023-04-04T05:04:25;98190.09;;;-1.12;61.65
65756;BME280;52489;47.502;18.940;2023-04-04T05:05:28;98196.41;;;-1.08;61.37
65756;BME280;52489;47.502;18.940;2023-04-04T05:06:31;98197.63;;;-1.11;60.92
65756;BME280;52489;47.502;18.940;2023-04-04T05:07:33;98193.75;;;-1.02;60.93
65756;BME280;52489;47.502;18.940;2023-04-04T05:08:36;98187.06;;;-1.03;60.53
65756;BME280;52489;47.502;18.940;2023-04-04T05:09:39;98191.75;;;-1.00;61.38
65756;BME280;52489;47.502;18.940;2023-04-04T05:10:41;98189.97;;;-0.99;60.53
65756;BME280;52489;47.502;18.940;2023-04-04T05:11:45;98185.22;;;-0.84;60.46
65756;BME280;52489;47.502;18.940;2023-04-04T05:12:48;98193.28;;;-0.80;59.83
65756;BME280;52489;47.502;18.940;2023-04-04T05:13:51;98183.59;;;-0.97;60.35
65756;BME280;52489;47.502;18.940;2023-04-04T05:14:54;98181.28;;;-0.86;59.97
65756;BME280;52489;47.502;18.940;2023-04-04T05:15:57;98177.69;;;-0.97;59.51
65756;BME280;52489;47.502;18.940;2023-04-04T05:16:59;98174.75;;;-1.01;59.80
65756;BME280;52489;47.502;18.940;2023-04-04T05:18:03;98181.00;;;-0.78;59.58
65756;BME280;52489;47.502;18.940;2023-04-04T05:19:06;98178.00;;;-0.75;59.25
65756;BME280;52489;47.502;18.940;2023-04-04T05:20:09;98179.59;;;-0.93;59.64
65756;BME280;52489;47.502;18.940;2023-04-04T05:21:11;98178.97;;;-0.88;58.90
65756;BME280;52489;47.502;18.940;2023-04-04T05:22:14;98184.00;;;-0.81;58.76
65756;BME280;52489;47.502;18.940;2023-04-04T05:23:17;98185.66;;;-0.87;59.39
65756;BME280;52489;47.502;18.940;2023-04-04T05:24:20;98188.13;;;-0.80;59.26
65756;BME280;52489;47.502;18.940;2023-04-04T05:25:27;98187.78;;;-0.84;58.27
65756;BME280;52489;47.502;18.940;2023-04-04T05:26:30;98189.34;;;-0.83;58.44
65756;BME280;52489;47.502;18.940;2023-04-04T05:27:33;98181.69;;;-0.71;58.05
65756;BME280;52489;47.502;18.940;2023-04-04T05:28:37;98187.69;;;-0.59;58.16
65756;BME280;52489;47.502;18.940;2023-04-04T05:29:39;98182.25;;;-0.69;58.49
65756;BME280;52489;47.502;18.940;2023-04-04T05:30:43;98184.25;;;-0.71;58.83
65756;BME280;52489;47.502;18.940;2023-04-04T05:31:46;98188.75;;;-0.66;58.36
65756;BME280;52489;47.502;18.940;2023-04-04T05:32:50;98188.19;;;-0.69;57.83
65756;BME280;52489;47.502;18.940;2023-04-04T05:33:53;98197.88;;;-0.82;57.96
65756;BME280;52489;47.502;18.940;2023-04-04T05:34:56;98196.72;;;-0.68;57.92
65756;BME280;52489;47.502;18.940;2023-04-04T05:36:00;98196.63;;;-0.61;58.00
65756;BME280;52489;47.502;18.940;2023-04-04T05:37:03;98196.88;;;-0.51;57.57